Flight Number: EUR2442 Duration: 6:00
Departure: Dakar Int'l Airport (GOOY) at 08:00 Distance: 2481 Nm
Arrival: Munich Int'l (EDDM) at 14:00 Equipment: B777

Weather Information
Dakar / Yoff, Senegal (GOOY) 14-44N 017-30W 24M Nov 19, 2018 - 05:00 PM EST / 2018.11.19 2200 UTC
Wind: from the N (360 degrees) at 9 MPH (8 KT):0
Visibility: 4 mile(s):0 Temperature: 71 F (22 C) Dew Point: 66 F (19 C) Relative Humidity: 83% Pressure (altimeter): 29.94 in. Hg (1014 hPa)
ob: GOOY 192200Z 36008KT 8000 NSC 22/19 Q1014 cycle: 22
Sunrise: 07:15 Sunset: 18:35 (UTC)

Munchen, Germany (EDDM) 48-21N 011-47E Nov 19, 2018 - 04:50 PM EST / 2018.11.19 2150 UTC
Wind: from the E (080 degrees) at 13 MPH (11 KT):0
Visibility: greater than 7 mile(s):0
Sky conditions: overcast Temperature: 32 F (0 C)
Windchill: 23 F (-5 C):1 Dew Point: 26 F (-3 C) Relative Humidity: 80% Pressure (altimeter): 29.77 in. Hg (1008 hPa)
ob: EDDM 192150Z 08011KT 9999 OVC013 M00/M03 Q1008 NOSIG cycle: 22
Sunrise: 06:30 Sunset: 15:25 (UTC)

TAF:2018/11/19 18:27 TAF EDDM 191700Z 1918/2024 08015KT 9999 BKN015 TEMPO 1918/2012 BKN012 BECMG 1923/2001 09010KT PROB30 TEMPO 2004/2007 4500 -SN BKN009 BECMG 2013/2015 09005KT BECMG 2019/2023 BKN007

Previous Pireps for this route
Date Aircraft Flight time Fuel used Landing rate On time
2016-03-10B77706.11109136-84Yes
2016-04-10B77705.05106121-224Yes
(pireps marked green are flown by you)

Route map